createdAt,value
2023-03-16T00:00:18.976Z,100.00
2023-03-16T00:10:20.391Z,100.00
2023-03-16T00:20:22.686Z,100.00
2023-03-16T00:30:23.968Z,100.00
2023-03-16T00:40:25.192Z,100.00
2023-03-16T00:50:27.179Z,100.00
2023-03-16T01:00:29.141Z,100.00
2023-03-16T01:10:30.834Z,100.00
2023-03-16T01:20:33.521Z,100.00
2023-03-16T01:30:35.660Z,100.00
2023-03-16T01:40:37.915Z,100.00
2023-03-16T01:50:39.159Z,100.00
2023-03-16T02:00:41.841Z,100.00
2023-03-16T02:10:43.067Z,100.00
2023-03-16T02:20:44.336Z,100.00
2023-03-16T02:30:45.551Z,100.00
2023-03-16T02:40:46.843Z,100.00
2023-03-16T02:50:48.113Z,100.00
2023-03-16T03:00:49.388Z,100.00
2023-03-16T03:10:50.651Z,100.00
2023-03-16T03:20:51.835Z,100.00
2023-03-16T03:30:53.052Z,100.00
2023-03-16T03:40:54.237Z,100.00
2023-03-16T03:50:55.418Z,100.00
2023-03-16T04:00:56.605Z,100.00
2023-03-16T04:10:57.953Z,100.00
2023-03-16T04:20:59.176Z,100.00
2023-03-16T04:31:00.422Z,100.00
2023-03-16T04:41:01.633Z,100.00
2023-03-16T04:51:03.705Z,100.00
2023-03-16T05:01:04.931Z,100.00
2023-03-16T05:11:06.270Z,100.00
2023-03-16T05:21:07.527Z,100.00
2023-03-16T05:31:09.826Z,100.00
2023-03-16T05:41:11.063Z,100.00
2023-03-16T05:51:14.184Z,100.00
2023-03-16T06:01:15.655Z,100.00
2023-03-16T06:11:16.892Z,100.00
2023-03-16T06:21:18.251Z,100.00
2023-03-16T06:31:19.685Z,100.00
2023-03-16T06:41:21.223Z,100.00
2023-03-16T06:51:22.468Z,100.00
2023-03-16T07:01:23.794Z,100.00
2023-03-16T07:11:25.234Z,100.00
2023-03-16T07:21:26.454Z,100.00
2023-03-16T07:31:27.709Z,100.00
2023-03-16T07:41:30.111Z,100.00
2023-03-16T07:51:32.875Z,100.00
2023-03-16T08:01:34.374Z,100.00
2023-03-16T08:11:35.662Z,100.00
2023-03-16T08:21:49.749Z,100.00
2023-03-16T08:31:58.165Z,100.00
2023-03-16T08:41:59.388Z,100.00
2023-03-16T08:52:00.719Z,100.00
2023-03-16T09:02:02.112Z,100.00
2023-03-16T09:12:04.609Z,100.00
2023-03-16T09:22:06.755Z,100.00
2023-03-16T09:32:07.970Z,100.00
2023-03-16T09:42:09.396Z,100.00
2023-03-16T09:52:10.618Z,100.00
2023-03-16T10:02:11.915Z,100.00
2023-03-16T10:12:13.710Z,100.00
2023-03-16T10:22:14.909Z,100.00
2023-03-16T10:32:16.594Z,100.00
2023-03-16T10:42:17.913Z,100.00
2023-03-16T10:52:19.732Z,100.00
2023-03-16T11:02:22.629Z,100.00
2023-03-16T11:12:24.133Z,100.00
2023-03-16T11:22:25.399Z,98.54
2023-03-16T11:32:26.751Z,100.00
2023-03-16T11:42:28.418Z,100.00
2023-03-16T11:52:29.626Z,100.00
2023-03-16T12:02:30.918Z,89.63
2023-03-16T12:12:32.296Z,87.39
2023-03-16T12:22:33.634Z,82.47
2023-03-16T12:32:34.918Z,81.27
2023-03-16T12:42:36.144Z,78.28
2023-03-16T12:52:37.367Z,76.84
2023-03-16T13:02:38.614Z,76.68
2023-03-16T13:12:41.922Z,75.63
2023-03-16T13:22:43.848Z,69.51
2023-03-16T13:32:45.113Z,66.58
2023-03-16T13:42:46.401Z,65.59
2023-03-16T13:52:47.709Z,66.06
2023-03-16T14:02:49.139Z,60.98
2023-03-16T14:12:50.431Z,58.53
2023-03-16T14:22:52.149Z,55.32
2023-03-16T14:32:53.424Z,54.13
2023-03-16T14:42:54.692Z,50.76
2023-03-16T14:52:55.984Z,47.88
2023-03-16T15:02:57.685Z,50.83
2023-03-16T15:13:13.055Z,51.88
2023-03-16T15:23:14.432Z,51.97
2023-03-16T15:33:16.341Z,56.51
2023-03-16T15:43:17.877Z,57.72
2023-03-16T15:53:29.916Z,57.58
2023-03-16T16:03:33.667Z,59.60
2023-03-16T16:13:44.089Z,60.00
2023-03-16T16:23:46.468Z,64.05
2023-03-16T16:33:47.712Z,63.62
2023-03-16T16:43:49.012Z,61.87
2023-03-16T16:53:50.336Z,64.50
2023-03-16T17:03:51.887Z,63.85
2023-03-16T17:13:53.866Z,68.34
2023-03-16T17:23:55.145Z,68.68
2023-03-16T17:33:57.389Z,69.87
2023-03-16T17:44:01.594Z,70.94
2023-03-16T17:54:04.154Z,72.06
2023-03-16T18:04:05.932Z,73.06
2023-03-16T18:14:07.416Z,74.22
2023-03-16T18:24:09.347Z,74.57
2023-03-16T18:34:11.456Z,76.25
2023-03-16T18:44:12.680Z,76.76
2023-03-16T18:54:14.214Z,76.43
2023-03-16T19:04:15.436Z,79.50
2023-03-16T19:14:17.394Z,81.58
2023-03-16T19:24:18.641Z,83.34
2023-03-16T19:34:19.873Z,85.95
2023-03-16T19:44:21.268Z,87.09
2023-03-16T19:54:22.583Z,88.47
2023-03-16T20:04:24.156Z,91.31
2023-03-16T20:14:25.684Z,95.41
2023-03-16T20:24:28.786Z,99.78
2023-03-16T20:34:30.715Z,100.00
2023-03-16T20:44:32.336Z,100.00
2023-03-16T20:54:33.550Z,100.00
2023-03-16T21:04:34.878Z,100.00
2023-03-16T21:14:36.340Z,100.00
2023-03-16T21:24:37.583Z,100.00
2023-03-16T21:34:39.251Z,100.00
2023-03-16T21:44:40.524Z,100.00
2023-03-16T21:54:42.018Z,100.00
2023-03-16T22:04:45.676Z,100.00
2023-03-16T22:14:47.694Z,100.00
2023-03-16T22:24:48.923Z,100.00
2023-03-16T22:34:50.140Z,100.00
2023-03-16T22:44:51.374Z,100.00
2023-03-16T22:54:52.603Z,100.00
2023-03-16T23:04:53.844Z,100.00
2023-03-16T23:14:56.188Z,100.00
2023-03-16T23:24:57.618Z,100.00
2023-03-16T23:34:59.413Z,100.00
2023-03-16T23:45:01.207Z,100.00
2023-03-16T23:55:02.611Z,100.00
